createdAt,value
2023-02-19T00:02:07.952Z,9.17
2023-02-19T00:04:34.575Z,9.18
2023-02-19T00:07:00.963Z,9.18
2023-02-19T00:09:27.633Z,9.17
2023-02-19T00:11:54.157Z,9.15
2023-02-19T00:14:21.544Z,9.15
2023-02-19T00:16:48.915Z,9.14
2023-02-19T00:19:18.797Z,9.13
2023-02-19T00:21:45.354Z,9.13
2023-02-19T00:24:13.501Z,9.12
2023-02-19T00:26:40.863Z,9.13
2023-02-19T00:29:09.285Z,9.13
2023-02-19T00:31:36.435Z,9.12
2023-02-19T00:34:05.292Z,9.12
2023-02-19T00:36:35.837Z,9.12
2023-02-19T00:39:02.388Z,9.12
2023-02-19T00:41:30.498Z,9.11
2023-02-19T00:44:03.437Z,9.11
2023-02-19T00:46:31.306Z,9.10
2023-02-19T00:48:58.601Z,9.10
2023-02-19T00:51:28.496Z,9.10
2023-02-19T00:53:55.216Z,9.10
2023-02-19T00:56:22.176Z,9.10
2023-02-19T00:58:48.983Z,9.11
2023-02-19T01:01:16.323Z,9.12
2023-02-19T01:03:42.932Z,9.10
2023-02-19T01:06:11.281Z,9.09
2023-02-19T01:08:38.209Z,9.09
2023-02-19T01:11:06.079Z,9.08
2023-02-19T01:13:33.525Z,9.10
2023-02-19T01:16:27.553Z,9.10
2023-02-19T01:18:54.834Z,9.11
2023-02-19T01:21:23.946Z,9.10
2023-02-19T01:23:51.924Z,9.11
2023-02-19T01:26:21.297Z,9.12
2023-02-19T01:28:48.437Z,9.10
2023-02-19T01:31:20.757Z,9.06
2023-02-19T01:33:49.717Z,9.06
2023-02-19T01:36:16.243Z,9.04
2023-02-19T01:38:43.057Z,9.03
2023-02-19T01:41:13.512Z,9.03
2023-02-19T01:44:00.742Z,9.00
2023-02-19T01:46:38.214Z,8.99
2023-02-19T01:49:14.111Z,8.97
2023-02-19T01:51:49.224Z,8.96
2023-02-19T01:54:20.973Z,8.93
2023-02-19T01:56:49.147Z,8.92
2023-02-19T01:59:16.737Z,8.90
2023-02-19T02:01:43.215Z,8.88
2023-02-19T02:04:12.112Z,8.87
2023-02-19T02:06:45.403Z,8.86
2023-02-19T02:09:30.836Z,8.84
2023-02-19T02:11:57.280Z,8.84
2023-02-19T02:14:27.719Z,8.86
2023-02-19T02:17:17.733Z,8.85
2023-02-19T02:20:15.018Z,8.82
2023-02-19T02:22:50.673Z,8.80
2023-02-19T02:25:51.890Z,8.80
2023-02-19T02:28:21.035Z,8.80
2023-02-19T02:30:55.529Z,8.79
2023-02-19T02:33:47.690Z,8.78
2023-02-19T02:36:18.542Z,8.78
2023-02-19T02:38:47.120Z,8.76
2023-02-19T02:41:15.389Z,8.76
2023-02-19T02:43:42.327Z,8.74
2023-02-19T02:46:16.691Z,8.74
2023-02-19T02:48:53.833Z,8.72
2023-02-19T02:51:30.812Z,8.72
2023-02-19T02:54:22.512Z,8.72
2023-02-19T02:56:50.168Z,8.72
2023-02-19T02:59:21.388Z,8.73
2023-02-19T03:02:12.573Z,8.73
2023-02-19T03:05:27.777Z,8.72
2023-02-19T03:08:06.257Z,8.72
2023-02-19T03:10:44.629Z,8.71
2023-02-19T03:13:40.857Z,8.71
2023-02-19T03:16:41.694Z,8.74
2023-02-19T03:19:19.618Z,8.71
2023-02-19T03:21:49.800Z,8.72
2023-02-19T03:24:38.452Z,8.72
2023-02-19T03:27:05.295Z,8.71
2023-02-19T03:29:35.596Z,8.69
2023-02-19T03:32:08.291Z,8.69
2023-02-19T03:34:41.579Z,8.70
2023-02-19T03:37:18.837Z,8.72
2023-02-19T03:39:45.609Z,8.71
2023-02-19T03:42:12.018Z,8.69
2023-02-19T03:44:50.808Z,8.69
2023-02-19T03:47:20.067Z,8.69
2023-02-19T03:49:51.601Z,8.71
2023-02-19T03:52:37.454Z,8.67
2023-02-19T03:55:26.260Z,8.69
2023-02-19T03:58:04.047Z,8.65
2023-02-19T04:00:38.286Z,8.61
2023-02-19T04:03:23.289Z,8.61
2023-02-19T04:05:55.981Z,8.59
2023-02-19T04:08:24.243Z,8.58
2023-02-19T04:10:53.359Z,8.56
2023-02-19T04:13:30.405Z,8.54
2023-02-19T04:16:02.422Z,8.54
2023-02-19T04:18:33.847Z,8.51
2023-02-19T04:21:03.307Z,8.52
2023-02-19T04:23:33.467Z,8.52
2023-02-19T04:26:12.430Z,8.52
2023-02-19T04:28:42.147Z,8.50
2023-02-19T04:31:09.543Z,8.51
2023-02-19T04:33:37.074Z,8.52
2023-02-19T04:36:04.682Z,8.52
2023-02-19T04:38:31.283Z,8.52
2023-02-19T04:40:57.827Z,8.50
2023-02-19T04:43:24.330Z,8.52
2023-02-19T04:45:50.842Z,8.53
2023-02-19T04:48:17.389Z,8.51
2023-02-19T04:50:43.886Z,8.50
2023-02-19T04:53:10.492Z,8.50
2023-02-19T04:55:38.594Z,8.49
2023-02-19T04:58:05.557Z,8.50
2023-02-19T05:00:33.866Z,8.52
2023-02-19T05:03:00.967Z,8.53
2023-02-19T05:05:27.919Z,8.52
2023-02-19T05:07:54.535Z,8.50
2023-02-19T05:10:21.030Z,8.49
2023-02-19T05:12:47.610Z,8.49
2023-02-19T05:15:14.080Z,8.49
2023-02-19T05:17:40.639Z,8.49
2023-02-19T05:20:07.766Z,8.49
2023-02-19T05:22:34.348Z,8.50
2023-02-19T05:25:00.819Z,8.49
2023-02-19T05:27:27.358Z,8.49
2023-02-19T05:29:53.794Z,8.48
2023-02-19T05:32:20.300Z,8.46
2023-02-19T05:34:46.725Z,8.46
2023-02-19T05:37:13.262Z,8.44
2023-02-19T05:39:39.729Z,8.44
2023-02-19T05:42:06.358Z,8.42
2023-02-19T05:44:32.777Z,8.41
2023-02-19T05:46:59.230Z,8.42
2023-02-19T05:49:26.841Z,8.42
2023-02-19T05:51:53.386Z,8.41
2023-02-19T05:54:19.874Z,8.40
2023-02-19T05:56:46.407Z,8.41
2023-02-19T05:59:21.597Z,8.41
2023-02-19T06:01:49.653Z,8.40
2023-02-19T06:04:17.188Z,8.43
2023-02-19T06:06:43.759Z,8.42
2023-02-19T06:09:10.553Z,8.42
2023-02-19T06:11:38.243Z,8.39
2023-02-19T06:14:05.479Z,8.38
2023-02-19T06:16:33.694Z,8.35
2023-02-19T06:19:03.956Z,8.36
2023-02-19T06:21:30.696Z,8.35
2023-02-19T06:23:57.127Z,8.32
2023-02-19T06:26:24.822Z,8.33
2023-02-19T06:28:53.055Z,8.35
2023-02-19T06:31:21.292Z,8.32
2023-02-19T06:33:48.218Z,8.30
2023-02-19T06:36:17.046Z,8.25
2023-02-19T06:38:44.088Z,8.24
2023-02-19T06:41:12.524Z,8.22
2023-02-19T06:43:39.275Z,8.24
2023-02-19T06:46:06.941Z,8.21
2023-02-19T06:48:34.069Z,8.20
2023-02-19T06:51:00.806Z,8.18
2023-02-19T06:53:27.634Z,8.16
2023-02-19T06:56:01.340Z,8.15
2023-02-19T06:58:27.917Z,8.12
2023-02-19T07:00:55.118Z,8.12
2023-02-19T07:03:21.857Z,8.11
2023-02-19T07:05:49.317Z,8.13
2023-02-19T07:08:17.273Z,8.12
2023-02-19T07:10:44.802Z,8.11
2023-02-19T07:13:11.523Z,8.13
2023-02-19T07:15:38.052Z,8.12
2023-02-19T07:18:07.056Z,8.13
2023-02-19T07:20:33.472Z,8.13
2023-02-19T07:23:00.053Z,8.13
2023-02-19T07:25:27.038Z,8.12
2023-02-19T07:27:53.490Z,8.13
2023-02-19T07:30:20.078Z,8.14
2023-02-19T07:32:46.571Z,8.14
2023-02-19T07:35:13.073Z,8.16
2023-02-19T07:37:41.195Z,8.18
2023-02-19T07:40:09.855Z,8.19
2023-02-19T07:42:36.357Z,8.21
2023-02-19T07:45:03.899Z,8.21
2023-02-19T07:47:30.628Z,8.23
2023-02-19T07:49:57.232Z,8.23
2023-02-19T07:52:23.813Z,8.24
2023-02-19T07:54:50.406Z,8.25
2023-02-19T07:57:16.917Z,8.23
2023-02-19T07:59:43.649Z,8.23
2023-02-19T08:02:39.296Z,8.27
2023-02-19T08:05:06.923Z,8.28
2023-02-19T08:07:37.130Z,8.26
2023-02-19T08:10:22.959Z,8.26
2023-02-19T08:13:16.519Z,8.24
2023-02-19T08:15:43.383Z,8.25
2023-02-19T08:18:10.817Z,8.26
2023-02-19T08:20:37.365Z,8.29
2023-02-19T08:23:03.979Z,8.33
2023-02-19T08:25:31.206Z,8.34
2023-02-19T08:27:57.866Z,8.32
2023-02-19T08:30:24.534Z,8.31
2023-02-19T08:32:50.960Z,8.27
2023-02-19T08:35:17.651Z,8.23
2023-02-19T08:37:44.193Z,8.22
2023-02-19T08:40:11.716Z,8.26
2023-02-19T08:42:38.242Z,8.31
2023-02-19T08:45:05.633Z,8.38
2023-02-19T08:47:35.473Z,8.44
2023-02-19T08:50:02.405Z,8.56
2023-02-19T08:52:28.876Z,8.59
2023-02-19T08:54:55.302Z,8.58
2023-02-19T08:57:22.181Z,8.53
2023-02-19T08:59:48.677Z,8.49
2023-02-19T09:02:15.121Z,8.49
2023-02-19T09:04:41.549Z,8.59
2023-02-19T09:07:09.567Z,8.58
2023-02-19T09:09:39.749Z,8.66
2023-02-19T09:12:10.862Z,8.84
2023-02-19T09:14:38.210Z,8.90
2023-02-19T09:17:06.534Z,8.89
2023-02-19T09:19:33.710Z,8.94
2023-02-19T09:22:00.179Z,8.90
2023-02-19T09:24:26.906Z,8.90
2023-02-19T09:26:54.530Z,8.95
2023-02-19T09:29:26.034Z,8.98
2023-02-19T09:31:59.522Z,9.07
2023-02-19T09:34:27.832Z,9.01
2023-02-19T09:36:54.856Z,8.97
2023-02-19T09:39:21.951Z,8.86
2023-02-19T09:42:15.349Z,8.88
2023-02-19T09:44:45.372Z,8.91
2023-02-19T09:47:27.768Z,8.85
2023-02-19T09:50:04.436Z,8.77
2023-02-19T09:52:30.808Z,8.71
2023-02-19T09:55:13.081Z,8.70
2023-02-19T09:57:44.871Z,8.72
2023-02-19T10:00:11.510Z,8.69
2023-02-19T10:02:38.735Z,8.73
2023-02-19T10:05:16.295Z,8.73
2023-02-19T10:07:49.345Z,8.79
2023-02-19T10:10:15.752Z,8.70
2023-02-19T10:12:52.361Z,8.64
2023-02-19T10:15:48.707Z,8.57
2023-02-19T10:18:20.777Z,8.45
2023-02-19T10:20:48.386Z,8.40
2023-02-19T10:23:16.081Z,8.36
2023-02-19T10:26:00.127Z,8.39
2023-02-19T10:28:33.533Z,8.43
2023-02-19T10:31:03.291Z,8.50
2023-02-19T10:33:30.148Z,8.49
2023-02-19T10:35:56.515Z,8.45
2023-02-19T10:38:46.715Z,8.39
2023-02-19T10:41:22.178Z,8.43
2023-02-19T10:44:06.901Z,8.53
2023-02-19T10:46:36.968Z,8.69
2023-02-19T10:49:37.735Z,8.69
2023-02-19T10:52:30.603Z,8.67
2023-02-19T10:55:14.442Z,8.60
2023-02-19T10:57:41.030Z,8.52
2023-02-19T11:00:16.428Z,8.55
2023-02-19T11:02:44.118Z,8.56
2023-02-19T11:05:15.001Z,8.57
2023-02-19T11:07:46.268Z,8.62
2023-02-19T11:10:31.513Z,8.73
2023-02-19T11:13:01.505Z,8.75
2023-02-19T11:15:30.337Z,8.70
2023-02-19T11:18:12.077Z,8.73
2023-02-19T11:20:57.599Z,8.69
2023-02-19T11:23:32.818Z,8.70
2023-02-19T11:26:03.541Z,8.71
2023-02-19T11:28:36.074Z,8.70
2023-02-19T11:31:18.939Z,8.73
2023-02-19T11:34:14.508Z,8.63
2023-02-19T11:36:41.984Z,8.67
2023-02-19T11:39:17.170Z,8.73
2023-02-19T11:41:53.644Z,8.70
2023-02-19T11:44:50.254Z,8.72
2023-02-19T11:47:35.229Z,8.80
2023-02-19T11:50:23.611Z,8.76
2023-02-19T11:53:27.902Z,8.77
2023-02-19T11:56:13.262Z,8.73
2023-02-19T11:58:55.333Z,8.70
2023-02-19T12:01:38.497Z,8.60
2023-02-19T12:04:37.629Z,8.63
2023-02-19T12:07:04.216Z,8.62
2023-02-19T12:09:41.090Z,8.45
2023-02-19T12:12:16.667Z,8.24
2023-02-19T12:15:15.309Z,8.05
2023-02-19T12:17:47.581Z,7.97
2023-02-19T12:20:26.039Z,8.01
2023-02-19T12:23:17.355Z,8.02
2023-02-19T12:25:52.443Z,7.95
2023-02-19T12:28:37.012Z,7.88
2023-02-19T12:31:36.552Z,7.84
2023-02-19T12:34:42.608Z,7.87
2023-02-19T12:37:26.013Z,7.79
2023-02-19T12:40:13.044Z,7.73
2023-02-19T12:42:56.885Z,7.70
2023-02-19T12:46:00.303Z,7.70
2023-02-19T12:48:43.003Z,7.69
2023-02-19T12:51:28.623Z,7.66
2023-02-19T12:54:17.880Z,7.74
2023-02-19T12:56:52.370Z,7.66
2023-02-19T12:59:29.930Z,7.61
2023-02-19T13:02:23.727Z,7.57
2023-02-19T13:04:58.395Z,7.62
2023-02-19T13:07:44.163Z,7.65
2023-02-19T13:10:10.553Z,7.66
2023-02-19T13:12:41.513Z,7.72
2023-02-19T13:15:18.429Z,7.72
2023-02-19T13:17:52.587Z,7.75
2023-02-19T13:20:21.655Z,7.65
2023-02-19T13:23:42.196Z,7.62
2023-02-19T13:26:23.518Z,7.51
2023-02-19T13:29:04.626Z,7.47
2023-02-19T13:31:33.887Z,7.40
2023-02-19T13:34:00.546Z,7.34
2023-02-19T13:36:29.048Z,7.40
2023-02-19T13:38:59.525Z,7.39
2023-02-19T13:41:41.267Z,7.41
2023-02-19T13:44:20.512Z,7.45
2023-02-19T13:46:48.558Z,7.47
2023-02-19T13:49:36.401Z,7.47
2023-02-19T13:52:33.148Z,7.53
2023-02-19T13:55:40.752Z,7.61
2023-02-19T13:58:32.944Z,7.65
2023-02-19T14:01:05.450Z,7.70
2023-02-19T14:03:37.800Z,7.82
2023-02-19T14:06:09.631Z,7.89
2023-02-19T14:08:57.123Z,7.87
2023-02-19T14:12:03.562Z,7.83
2023-02-19T14:14:37.278Z,7.83
2023-02-19T14:17:23.754Z,7.92
2023-02-19T14:19:58.554Z,7.91
2023-02-19T14:22:52.008Z,7.97
2023-02-19T14:25:27.757Z,7.96
2023-02-19T14:27:59.711Z,8.01
2023-02-19T14:30:27.322Z,8.09
2023-02-19T14:33:02.778Z,8.07
2023-02-19T14:35:40.410Z,8.07
2023-02-19T14:38:16.658Z,8.07
2023-02-19T14:40:45.891Z,8.09
2023-02-19T14:43:16.605Z,8.06
2023-02-19T14:45:47.334Z,8.09
2023-02-19T14:48:38.395Z,8.07
2023-02-19T14:51:13.683Z,8.07
2023-02-19T14:53:44.539Z,8.10
2023-02-19T14:56:24.978Z,8.05
2023-02-19T14:59:13.187Z,8.09
2023-02-19T15:01:39.791Z,8.13
2023-02-19T15:04:06.857Z,8.21
2023-02-19T15:06:35.851Z,8.22
2023-02-19T15:09:07.218Z,8.20
2023-02-19T15:11:35.118Z,8.21
2023-02-19T15:14:08.193Z,8.28
2023-02-19T15:16:36.344Z,8.26
2023-02-19T15:19:07.904Z,8.20
2023-02-19T15:21:38.825Z,8.12
2023-02-19T15:24:06.968Z,8.00
2023-02-19T15:26:43.402Z,7.92
2023-02-19T15:29:12.502Z,7.82
2023-02-19T15:31:54.732Z,7.85
2023-02-19T15:34:25.422Z,7.82
2023-02-19T15:36:56.810Z,7.81
2023-02-19T15:39:26.138Z,7.85
2023-02-19T15:42:00.211Z,7.81
2023-02-19T15:44:45.252Z,7.77
2023-02-19T15:47:29.689Z,7.70
2023-02-19T15:50:04.338Z,7.63
2023-02-19T15:52:39.117Z,7.55
2023-02-19T15:55:24.033Z,7.46
2023-02-19T15:58:04.573Z,7.43
2023-02-19T16:00:42.064Z,7.36
2023-02-19T16:03:17.470Z,7.36
2023-02-19T16:05:44.028Z,7.37
2023-02-19T16:08:20.289Z,7.36
2023-02-19T16:10:58.396Z,7.31
2023-02-19T16:13:30.548Z,7.26
2023-02-19T16:16:03.051Z,7.23
2023-02-19T16:18:30.284Z,7.21
2023-02-19T16:20:57.233Z,7.19
2023-02-19T16:23:24.327Z,7.18
2023-02-19T16:26:01.992Z,7.16
2023-02-19T16:28:35.453Z,7.19
2023-02-19T16:31:22.304Z,7.16
2023-02-19T16:33:50.261Z,7.13
2023-02-19T16:36:23.896Z,7.11
2023-02-19T16:39:08.484Z,7.09
2023-02-19T16:41:40.874Z,7.04
2023-02-19T16:44:25.754Z,6.96
2023-02-19T16:46:54.356Z,6.95
2023-02-19T16:49:22.774Z,6.93
2023-02-19T16:51:50.866Z,6.94
2023-02-19T16:54:17.347Z,6.93
2023-02-19T16:56:43.770Z,6.90
2023-02-19T16:59:10.254Z,6.93
2023-02-19T17:01:37.523Z,6.92
2023-02-19T17:04:06.591Z,6.91
2023-02-19T17:06:34.665Z,6.93
2023-02-19T17:09:01.199Z,6.92
2023-02-19T17:11:27.676Z,6.88
2023-02-19T17:13:54.097Z,6.89
2023-02-19T17:16:27.526Z,6.86
2023-02-19T17:18:55.196Z,6.86
2023-02-19T17:21:23.414Z,6.83
2023-02-19T17:23:50.741Z,6.84
2023-02-19T17:26:23.908Z,6.82
2023-02-19T17:28:50.792Z,6.83
2023-02-19T17:31:18.035Z,6.83
2023-02-19T17:33:44.858Z,6.81
2023-02-19T17:36:40.377Z,6.76
2023-02-19T17:39:14.948Z,6.70
2023-02-19T17:41:41.657Z,6.68
2023-02-19T17:44:08.050Z,6.69
2023-02-19T17:46:34.629Z,6.71
2023-02-19T17:49:01.190Z,6.71
2023-02-19T17:51:28.335Z,6.67
2023-02-19T17:53:54.812Z,6.65
2023-02-19T17:56:25.556Z,6.63
2023-02-19T17:58:52.710Z,6.60
2023-02-19T18:01:19.144Z,6.61
2023-02-19T18:03:45.629Z,6.60
2023-02-19T18:06:12.136Z,6.59
2023-02-19T18:08:39.232Z,6.58
2023-02-19T18:11:07.407Z,6.57
2023-02-19T18:13:33.823Z,6.53
2023-02-19T18:16:00.447Z,6.54
2023-02-19T18:18:26.982Z,6.58
2023-02-19T18:20:53.444Z,6.58
2023-02-19T18:23:20.649Z,6.55
2023-02-19T18:25:47.328Z,6.54
2023-02-19T18:28:14.891Z,6.53
2023-02-19T18:30:41.474Z,6.52
2023-02-19T18:33:10.734Z,6.45
2023-02-19T18:35:37.979Z,6.41
2023-02-19T18:38:04.751Z,6.38
2023-02-19T18:40:31.319Z,6.33
2023-02-19T18:42:58.629Z,6.31
2023-02-19T18:45:25.321Z,6.23
2023-02-19T18:47:51.879Z,6.15
2023-02-19T18:50:19.223Z,6.10
2023-02-19T18:52:45.792Z,6.03
2023-02-19T18:55:12.232Z,5.99
2023-02-19T18:57:38.779Z,5.93
2023-02-19T19:00:06.927Z,5.85
2023-02-19T19:02:47.050Z,5.82
2023-02-19T19:05:18.389Z,5.80
2023-02-19T19:07:44.911Z,5.75
2023-02-19T19:10:11.385Z,5.68
2023-02-19T19:12:37.864Z,5.65
2023-02-19T19:15:04.987Z,5.58
2023-02-19T19:17:31.454Z,5.55
2023-02-19T19:19:57.933Z,5.54
2023-02-19T19:22:25.097Z,5.51
2023-02-19T19:24:51.562Z,5.49
2023-02-19T19:27:20.255Z,5.40
2023-02-19T19:29:47.866Z,5.30
2023-02-19T19:32:14.535Z,5.29
2023-02-19T19:34:42.758Z,5.27
2023-02-19T19:37:09.575Z,5.25
2023-02-19T19:39:36.813Z,5.20
2023-02-19T19:42:03.528Z,5.14
2023-02-19T19:44:30.058Z,5.09
2023-02-19T19:46:56.619Z,5.07
2023-02-19T19:49:23.486Z,5.05
2023-02-19T19:51:49.929Z,4.99
2023-02-19T19:54:16.407Z,4.92
2023-02-19T19:56:45.703Z,4.92
2023-02-19T19:59:14.501Z,4.88
2023-02-19T20:02:03.088Z,4.83
2023-02-19T20:04:29.797Z,4.79
2023-02-19T20:06:58.481Z,4.76
2023-02-19T20:09:25.564Z,4.73
2023-02-19T20:11:53.305Z,4.69
2023-02-19T20:14:22.046Z,4.64
2023-02-19T20:16:49.678Z,4.61
2023-02-19T20:19:17.330Z,4.59
2023-02-19T20:21:51.461Z,4.56
2023-02-19T20:24:24.095Z,4.55
2023-02-19T20:26:54.796Z,4.53
2023-02-19T20:29:21.219Z,4.51
2023-02-19T20:31:49.821Z,4.47
2023-02-19T20:34:16.882Z,4.47
2023-02-19T20:36:44.567Z,4.45
2023-02-19T20:39:11.670Z,4.44
2023-02-19T20:41:38.209Z,4.44
2023-02-19T20:44:04.722Z,4.40
2023-02-19T20:46:31.257Z,4.39
2023-02-19T20:48:57.815Z,4.36
2023-02-19T20:51:24.363Z,4.34
2023-02-19T20:53:50.770Z,4.32
2023-02-19T20:56:17.221Z,4.28
2023-02-19T20:58:43.647Z,4.28
2023-02-19T21:01:11.688Z,4.27
2023-02-19T21:03:38.185Z,4.26
2023-02-19T21:06:04.789Z,4.25
2023-02-19T21:08:31.223Z,4.25
2023-02-19T21:10:57.673Z,4.25
2023-02-19T21:13:24.141Z,4.24
2023-02-19T21:15:50.652Z,4.23
2023-02-19T21:18:17.419Z,4.22
2023-02-19T21:20:43.942Z,4.18
2023-02-19T21:23:10.516Z,4.16
2023-02-19T21:25:36.951Z,4.15
2023-02-19T21:28:03.712Z,4.13
2023-02-19T21:30:30.223Z,4.11
2023-02-19T21:32:57.193Z,4.09
2023-02-19T21:35:23.612Z,4.10
2023-02-19T21:37:50.698Z,4.09
2023-02-19T21:40:17.150Z,4.10
2023-02-19T21:42:43.634Z,4.10
2023-02-19T21:45:10.127Z,4.10
2023-02-19T21:47:36.556Z,4.10
2023-02-19T21:50:03.152Z,4.09
2023-02-19T21:52:31.000Z,4.09
2023-02-19T21:54:57.982Z,4.10
2023-02-19T21:57:24.451Z,4.09
2023-02-19T21:59:50.979Z,4.10
2023-02-19T22:02:20.488Z,4.08
2023-02-19T22:04:53.426Z,4.07
2023-02-19T22:07:21.200Z,4.09
2023-02-19T22:09:48.765Z,4.11
2023-02-19T22:12:15.751Z,4.10
2023-02-19T22:14:42.410Z,4.10
2023-02-19T22:17:09.361Z,4.10
2023-02-19T22:19:36.026Z,4.11
2023-02-19T22:22:02.818Z,4.11
2023-02-19T22:24:29.311Z,4.11
2023-02-19T22:26:57.165Z,4.12
2023-02-19T22:29:24.369Z,4.15
2023-02-19T22:31:51.019Z,4.14
2023-02-19T22:34:17.790Z,4.15
2023-02-19T22:36:44.790Z,4.16
2023-02-19T22:39:26.294Z,4.15
2023-02-19T22:41:53.384Z,4.16
2023-02-19T22:44:20.037Z,4.15
2023-02-19T22:46:49.730Z,4.13
2023-02-19T22:49:17.002Z,4.13
2023-02-19T22:51:50.990Z,4.16
2023-02-19T22:54:17.852Z,4.17
2023-02-19T22:56:44.575Z,4.19
2023-02-19T22:59:11.204Z,4.20
2023-02-19T23:01:37.732Z,4.22
2023-02-19T23:04:10.501Z,4.25
2023-02-19T23:06:42.709Z,4.25
2023-02-19T23:09:14.973Z,4.24
2023-02-19T23:11:42.461Z,4.28
2023-02-19T23:14:09.002Z,4.29
2023-02-19T23:16:35.861Z,4.28
2023-02-19T23:19:04.864Z,4.30
2023-02-19T23:21:32.591Z,4.31
2023-02-19T23:23:59.536Z,4.34
2023-02-19T23:26:26.203Z,4.37
2023-02-19T23:28:52.675Z,4.38
2023-02-19T23:31:19.462Z,4.40
2023-02-19T23:33:46.100Z,4.43
2023-02-19T23:36:13.957Z,4.42
2023-02-19T23:38:43.756Z,4.44
2023-02-19T23:41:12.239Z,4.47
2023-02-19T23:43:39.342Z,4.49
2023-02-19T23:46:06.233Z,4.52
2023-02-19T23:48:32.984Z,4.55
2023-02-19T23:50:59.635Z,4.56
2023-02-19T23:53:26.083Z,4.57
2023-02-19T23:55:52.613Z,4.59
2023-02-19T23:58:19.059Z,4.58
